sensor_id;sensor_type;location;lat;lon;timestamp;P1;durP1;ratioP1;P2;durP2;ratioP2
51618;SDS011;38518;53.164;5.430;2023-09-30T00:01:54;11.35;;;3.35;;
51618;SDS011;38518;53.164;5.430;2023-09-30T00:04:20;11.95;;;2.85;;
51618;SDS011;38518;53.164;5.430;2023-09-30T00:06:46;8.85;;;2.75;;
51618;SDS011;38518;53.164;5.430;2023-09-30T00:09:12;8.90;;;2.63;;
51618;SDS011;38518;53.164;5.430;2023-09-30T00:11:38;8.80;;;2.85;;
51618;SDS011;38518;53.164;5.430;2023-09-30T00:14:04;8.70;;;2.83;;
51618;SDS011;38518;53.164;5.430;2023-09-30T00:16:30;12.75;;;2.72;;
51618;SDS011;38518;53.164;5.430;2023-09-30T00:18:56;8.77;;;2.97;;
51618;SDS011;38518;53.164;5.430;2023-09-30T00:21:23;13.18;;;2.65;;
51618;SDS011;38518;53.164;5.430;2023-09-30T00:23:49;10.35;;;2.80;;
51618;SDS011;38518;53.164;5.430;2023-09-30T00:26:15;9.43;;;2.65;;
51618;SDS011;38518;53.164;5.430;2023-09-30T00:28:41;8.38;;;2.30;;
51618;SDS011;38518;53.164;5.430;2023-09-30T00:31:07;11.68;;;3.00;;
51618;SDS011;38518;53.164;5.430;2023-09-30T00:33:36;13.27;;;3.38;;
51618;SDS011;38518;53.164;5.430;2023-09-30T00:36:06;9.95;;;2.70;;
51618;SDS011;38518;53.164;5.430;2023-09-30T00:38:33;11.75;;;2.85;;
51618;SDS011;38518;53.164;5.430;2023-09-30T00:40:58;8.88;;;2.80;;
51618;SDS011;38518;53.164;5.430;2023-09-30T00:43:24;10.75;;;3.30;;
51618;SDS011;38518;53.164;5.430;2023-09-30T00:46:01;7.40;;;3.08;;
51618;SDS011;38518;53.164;5.430;2023-09-30T00:48:36;10.52;;;3.08;;
51618;SDS011;38518;53.164;5.430;2023-09-30T00:51:03;12.88;;;3.10;;
51618;SDS011;38518;53.164;5.430;2023-09-30T00:53:29;10.45;;;3.35;;
51618;SDS011;38518;53.164;5.430;2023-09-30T00:55:55;14.48;;;3.15;;
51618;SDS011;38518;53.164;5.430;2023-09-30T00:58:22;8.05;;;2.60;;
51618;SDS011;38518;53.164;5.430;2023-09-30T01:00:52;9.43;;;2.67;;
51618;SDS011;38518;53.164;5.430;2023-09-30T01:03:18;7.97;;;2.65;;
51618;SDS011;38518;53.164;5.430;2023-09-30T01:05:44;8.98;;;2.47;;
51618;SDS011;38518;53.164;5.430;2023-09-30T01:08:10;7.63;;;2.25;;
51618;SDS011;38518;53.164;5.430;2023-09-30T01:10:36;11.48;;;3.25;;
51618;SDS011;38518;53.164;5.430;2023-09-30T01:13:02;10.13;;;2.45;;
51618;SDS011;38518;53.164;5.430;2023-09-30T01:15:31;7.68;;;2.47;;
51618;SDS011;38518;53.164;5.430;2023-09-30T01:17:56;8.20;;;2.63;;
51618;SDS011;38518;53.164;5.430;2023-09-30T01:20:23;8.23;;;2.63;;
51618;SDS011;38518;53.164;5.430;2023-09-30T01:22:49;10.02;;;2.47;;
51618;SDS011;38518;53.164;5.430;2023-09-30T01:25:15;7.63;;;2.15;;
51618;SDS011;38518;53.164;5.430;2023-09-30T01:27:41;6.78;;;2.40;;
51618;SDS011;38518;53.164;5.430;2023-09-30T01:30:08;9.80;;;2.97;;
51618;SDS011;38518;53.164;5.430;2023-09-30T01:32:38;9.50;;;2.80;;
51618;SDS011;38518;53.164;5.430;2023-09-30T01:35:05;8.55;;;2.35;;
51618;SDS011;38518;53.164;5.430;2023-09-30T01:37:31;11.48;;;2.20;;
51618;SDS011;38518;53.164;5.430;2023-09-30T01:39:57;12.90;;;2.80;;
51618;SDS011;38518;53.164;5.430;2023-09-30T01:42:22;9.55;;;2.63;;
51618;SDS011;38518;53.164;5.430;2023-09-30T01:44:48;10.20;;;2.60;;
51618;SDS011;38518;53.164;5.430;2023-09-30T01:47:14;9.82;;;2.65;;
51618;SDS011;38518;53.164;5.430;2023-09-30T01:49:39;6.68;;;2.00;;
51618;SDS011;38518;53.164;5.430;2023-09-30T01:52:05;7.85;;;2.28;;
51618;SDS011;38518;53.164;5.430;2023-09-30T01:54:31;8.68;;;2.60;;
51618;SDS011;38518;53.164;5.430;2023-09-30T01:56:57;7.40;;;2.08;;
51618;SDS011;38518;53.164;5.430;2023-09-30T01:59:24;7.78;;;2.67;;
51618;SDS011;38518;53.164;5.430;2023-09-30T02:01:49;7.88;;;2.13;;
51618;SDS011;38518;53.164;5.430;2023-09-30T02:04:15;6.78;;;2.20;;
51618;SDS011;38518;53.164;5.430;2023-09-30T02:06:41;7.10;;;1.90;;
51618;SDS011;38518;53.164;5.430;2023-09-30T02:09:07;8.77;;;2.25;;
51618;SDS011;38518;53.164;5.430;2023-09-30T02:11:34;7.68;;;2.13;;
51618;SDS011;38518;53.164;5.430;2023-09-30T02:14:01;9.70;;;2.58;;
51618;SDS011;38518;53.164;5.430;2023-09-30T02:16:27;6.93;;;2.08;;
51618;SDS011;38518;53.164;5.430;2023-09-30T02:18:53;10.07;;;2.25;;
51618;SDS011;38518;53.164;5.430;2023-09-30T02:21:19;8.23;;;2.50;;
51618;SDS011;38518;53.164;5.430;2023-09-30T02:23:46;7.03;;;1.95;;
51618;SDS011;38518;53.164;5.430;2023-09-30T02:26:16;6.85;;;2.13;;
51618;SDS011;38518;53.164;5.430;2023-09-30T02:28:42;12.40;;;2.70;;
51618;SDS011;38518;53.164;5.430;2023-09-30T02:31:08;7.25;;;2.33;;
51618;SDS011;38518;53.164;5.430;2023-09-30T02:33:34;7.82;;;2.08;;
51618;SDS011;38518;53.164;5.430;2023-09-30T02:36:06;11.73;;;2.15;;
51618;SDS011;38518;53.164;5.430;2023-09-30T02:38:33;9.07;;;2.42;;
51618;SDS011;38518;53.164;5.430;2023-09-30T02:41:02;6.30;;;2.00;;
51618;SDS011;38518;53.164;5.430;2023-09-30T02:43:28;8.88;;;2.20;;
51618;SDS011;38518;53.164;5.430;2023-09-30T02:45:54;6.65;;;2.55;;
51618;SDS011;38518;53.164;5.430;2023-09-30T02:48:20;9.38;;;2.92;;
51618;SDS011;38518;53.164;5.430;2023-09-30T02:50:46;9.30;;;2.28;;
51618;SDS011;38518;53.164;5.430;2023-09-30T02:53:12;8.95;;;2.05;;
51618;SDS011;38518;53.164;5.430;2023-09-30T02:55:38;7.60;;;2.30;;
51618;SDS011;38518;53.164;5.430;2023-09-30T02:58:05;6.88;;;2.10;;
51618;SDS011;38518;53.164;5.430;2023-09-30T03:00:33;9.48;;;2.20;;
51618;SDS011;38518;53.164;5.430;2023-09-30T03:03:03;9.27;;;2.10;;
51618;SDS011;38518;53.164;5.430;2023-09-30T03:05:29;7.13;;;2.10;;
51618;SDS011;38518;53.164;5.430;2023-09-30T03:07:58;8.95;;;2.28;;
51618;SDS011;38518;53.164;5.430;2023-09-30T03:10:25;8.27;;;2.40;;
51618;SDS011;38518;53.164;5.430;2023-09-30T03:12:52;8.20;;;2.38;;
51618;SDS011;38518;53.164;5.430;2023-09-30T03:15:18;7.07;;;2.00;;
51618;SDS011;38518;53.164;5.430;2023-09-30T03:17:44;6.88;;;2.30;;
51618;SDS011;38518;53.164;5.430;2023-09-30T03:20:10;8.35;;;2.17;;
51618;SDS011;38518;53.164;5.430;2023-09-30T03:22:40;8.48;;;1.98;;
51618;SDS011;38518;53.164;5.430;2023-09-30T03:25:08;7.13;;;1.95;;
51618;SDS011;38518;53.164;5.430;2023-09-30T03:27:37;11.05;;;2.40;;
51618;SDS011;38518;53.164;5.430;2023-09-30T03:30:07;10.30;;;2.72;;
51618;SDS011;38518;53.164;5.430;2023-09-30T03:32:34;7.40;;;2.50;;
51618;SDS011;38518;53.164;5.430;2023-09-30T03:35:06;10.98;;;2.30;;
51618;SDS011;38518;53.164;5.430;2023-09-30T03:37:36;9.30;;;2.53;;
51618;SDS011;38518;53.164;5.430;2023-09-30T03:40:02;8.30;;;2.33;;
51618;SDS011;38518;53.164;5.430;2023-09-30T03:42:39;12.32;;;2.50;;
51618;SDS011;38518;53.164;5.430;2023-09-30T03:45:08;7.50;;;2.00;;
51618;SDS011;38518;53.164;5.430;2023-09-30T03:47:35;9.65;;;2.30;;
51618;SDS011;38518;53.164;5.430;2023-09-30T03:50:02;8.60;;;1.77;;
51618;SDS011;38518;53.164;5.430;2023-09-30T03:52:28;7.80;;;2.70;;
51618;SDS011;38518;53.164;5.430;2023-09-30T03:54:54;9.80;;;2.42;;
51618;SDS011;38518;53.164;5.430;2023-09-30T03:57:20;12.80;;;2.40;;
51618;SDS011;38518;53.164;5.430;2023-09-30T03:59:46;10.90;;;2.88;;
51618;SDS011;38518;53.164;5.430;2023-09-30T04:02:12;9.00;;;2.38;;
51618;SDS011;38518;53.164;5.430;2023-09-30T04:04:39;8.25;;;2.60;;
51618;SDS011;38518;53.164;5.430;2023-09-30T04:07:05;10.23;;;2.10;;
51618;SDS011;38518;53.164;5.430;2023-09-30T04:09:35;8.45;;;2.10;;
51618;SDS011;38518;53.164;5.430;2023-09-30T04:12:01;9.20;;;2.40;;
51618;SDS011;38518;53.164;5.430;2023-09-30T04:14:27;8.77;;;2.42;;
51618;SDS011;38518;53.164;5.430;2023-09-30T04:16:52;9.63;;;2.38;;
51618;SDS011;38518;53.164;5.430;2023-09-30T04:19:21;9.57;;;2.50;;
51618;SDS011;38518;53.164;5.430;2023-09-30T04:21:47;9.10;;;2.10;;
51618;SDS011;38518;53.164;5.430;2023-09-30T04:24:13;10.30;;;2.45;;
51618;SDS011;38518;53.164;5.430;2023-09-30T04:26:38;10.80;;;2.60;;
51618;SDS011;38518;53.164;5.430;2023-09-30T04:29:06;9.38;;;2.40;;
51618;SDS011;38518;53.164;5.430;2023-09-30T04:31:36;9.13;;;2.20;;
51618;SDS011;38518;53.164;5.430;2023-09-30T04:34:04;8.45;;;2.13;;
51618;SDS011;38518;53.164;5.430;2023-09-30T04:36:30;10.90;;;2.70;;
51618;SDS011;38518;53.164;5.430;2023-09-30T04:38:57;9.27;;;2.45;;
51618;SDS011;38518;53.164;5.430;2023-09-30T04:41:26;13.57;;;2.90;;
51618;SDS011;38518;53.164;5.430;2023-09-30T04:43:51;9.20;;;2.80;;
51618;SDS011;38518;53.164;5.430;2023-09-30T04:46:18;12.10;;;2.88;;
51618;SDS011;38518;53.164;5.430;2023-09-30T04:48:45;7.28;;;2.10;;
51618;SDS011;38518;53.164;5.430;2023-09-30T04:51:13;9.30;;;2.65;;
51618;SDS011;38518;53.164;5.430;2023-09-30T04:53:41;8.63;;;2.40;;
51618;SDS011;38518;53.164;5.430;2023-09-30T04:56:07;8.25;;;2.30;;
51618;SDS011;38518;53.164;5.430;2023-09-30T04:58:33;10.30;;;2.42;;
51618;SDS011;38518;53.164;5.430;2023-09-30T05:00:58;11.73;;;2.70;;
51618;SDS011;38518;53.164;5.430;2023-09-30T05:03:24;10.10;;;2.80;;
51618;SDS011;38518;53.164;5.430;2023-09-30T05:05:51;10.93;;;2.97;;
51618;SDS011;38518;53.164;5.430;2023-09-30T05:08:19;11.32;;;2.75;;
51618;SDS011;38518;53.164;5.430;2023-09-30T05:10:44;8.40;;;2.50;;
51618;SDS011;38518;53.164;5.430;2023-09-30T05:13:11;11.48;;;2.40;;
51618;SDS011;38518;53.164;5.430;2023-09-30T05:15:37;11.05;;;2.50;;
51618;SDS011;38518;53.164;5.430;2023-09-30T05:18:03;10.65;;;2.47;;
51618;SDS011;38518;53.164;5.430;2023-09-30T05:20:30;10.57;;;2.47;;
51618;SDS011;38518;53.164;5.430;2023-09-30T05:22:55;9.68;;;2.58;;
51618;SDS011;38518;53.164;5.430;2023-09-30T05:25:21;9.75;;;2.75;;
51618;SDS011;38518;53.164;5.430;2023-09-30T05:27:51;10.40;;;2.80;;
51618;SDS011;38518;53.164;5.430;2023-09-30T05:30:17;11.80;;;2.70;;
51618;SDS011;38518;53.164;5.430;2023-09-30T05:32:45;7.90;;;2.58;;
51618;SDS011;38518;53.164;5.430;2023-09-30T05:35:11;9.82;;;2.42;;
51618;SDS011;38518;53.164;5.430;2023-09-30T05:37:41;12.77;;;2.85;;
51618;SDS011;38518;53.164;5.430;2023-09-30T05:40:07;21.50;;;4.40;;
51618;SDS011;38518;53.164;5.430;2023-09-30T05:42:43;8.93;;;2.53;;
51618;SDS011;38518;53.164;5.430;2023-09-30T05:45:10;8.63;;;2.55;;
51618;SDS011;38518;53.164;5.430;2023-09-30T05:47:38;14.38;;;2.75;;
51618;SDS011;38518;53.164;5.430;2023-09-30T05:50:04;7.60;;;1.90;;
51618;SDS011;38518;53.164;5.430;2023-09-30T05:52:32;9.25;;;2.95;;
51618;SDS011;38518;53.164;5.430;2023-09-30T05:54:58;8.57;;;2.22;;
51618;SDS011;38518;53.164;5.430;2023-09-30T05:57:26;9.07;;;2.38;;
51618;SDS011;38518;53.164;5.430;2023-09-30T05:59:52;10.57;;;2.60;;
51618;SDS011;38518;53.164;5.430;2023-09-30T06:02:18;15.65;;;3.13;;
51618;SDS011;38518;53.164;5.430;2023-09-30T06:04:44;11.45;;;2.75;;
51618;SDS011;38518;53.164;5.430;2023-09-30T06:07:11;12.85;;;2.72;;
51618;SDS011;38518;53.164;5.430;2023-09-30T06:09:37;9.02;;;2.50;;
51618;SDS011;38518;53.164;5.430;2023-09-30T06:12:03;10.65;;;2.53;;
51618;SDS011;38518;53.164;5.430;2023-09-30T06:14:31;8.13;;;2.85;;
51618;SDS011;38518;53.164;5.430;2023-09-30T06:16:58;7.68;;;2.72;;
51618;SDS011;38518;53.164;5.430;2023-09-30T06:19:24;13.20;;;3.05;;
51618;SDS011;38518;53.164;5.430;2023-09-30T06:21:51;13.00;;;2.95;;
51618;SDS011;38518;53.164;5.430;2023-09-30T06:24:17;10.93;;;2.88;;
51618;SDS011;38518;53.164;5.430;2023-09-30T06:26:45;12.25;;;3.03;;
51618;SDS011;38518;53.164;5.430;2023-09-30T06:29:14;12.35;;;2.90;;
51618;SDS011;38518;53.164;5.430;2023-09-30T06:31:40;9.02;;;2.30;;
51618;SDS011;38518;53.164;5.430;2023-09-30T06:34:05;10.70;;;2.80;;
51618;SDS011;38518;53.164;5.430;2023-09-30T06:36:32;9.45;;;2.63;;
51618;SDS011;38518;53.164;5.430;2023-09-30T06:38:57;11.10;;;2.70;;
51618;SDS011;38518;53.164;5.430;2023-09-30T06:41:24;8.63;;;2.70;;
51618;SDS011;38518;53.164;5.430;2023-09-30T06:43:50;10.82;;;2.80;;
51618;SDS011;38518;53.164;5.430;2023-09-30T06:46:17;13.40;;;2.88;;
51618;SDS011;38518;53.164;5.430;2023-09-30T06:48:42;14.40;;;3.00;;
51618;SDS011;38518;53.164;5.430;2023-09-30T06:51:14;12.05;;;2.97;;
51618;SDS011;38518;53.164;5.430;2023-09-30T06:53:41;12.02;;;2.60;;
51618;SDS011;38518;53.164;5.430;2023-09-30T06:56:06;9.68;;;2.88;;
51618;SDS011;38518;53.164;5.430;2023-09-30T06:58:33;9.00;;;2.10;;
51618;SDS011;38518;53.164;5.430;2023-09-30T07:00:59;11.20;;;2.60;;
51618;SDS011;38518;53.164;5.430;2023-09-30T07:03:25;11.55;;;2.38;;
51618;SDS011;38518;53.164;5.430;2023-09-30T07:05:50;8.05;;;2.13;;
51618;SDS011;38518;53.164;5.430;2023-09-30T07:08:19;10.25;;;2.33;;
51618;SDS011;38518;53.164;5.430;2023-09-30T07:10:46;5.63;;;2.17;;
51618;SDS011;38518;53.164;5.430;2023-09-30T07:13:15;9.73;;;2.70;;
51618;SDS011;38518;53.164;5.430;2023-09-30T07:15:41;11.50;;;2.95;;
51618;SDS011;38518;53.164;5.430;2023-09-30T07:18:07;10.73;;;2.20;;
51618;SDS011;38518;53.164;5.430;2023-09-30T07:20:33;11.57;;;2.72;;
51618;SDS011;38518;53.164;5.430;2023-09-30T07:22:59;10.02;;;2.20;;
51618;SDS011;38518;53.164;5.430;2023-09-30T07:25:28;10.90;;;2.60;;
51618;SDS011;38518;53.164;5.430;2023-09-30T07:27:57;9.55;;;2.50;;
51618;SDS011;38518;53.164;5.430;2023-09-30T07:30:23;7.75;;;2.67;;
51618;SDS011;38518;53.164;5.430;2023-09-30T07:32:50;9.77;;;2.80;;
51618;SDS011;38518;53.164;5.430;2023-09-30T07:35:17;8.13;;;2.75;;
51618;SDS011;38518;53.164;5.430;2023-09-30T07:37:42;9.35;;;2.10;;
51618;SDS011;38518;53.164;5.430;2023-09-30T07:40:09;7.32;;;2.35;;
51618;SDS011;38518;53.164;5.430;2023-09-30T07:42:37;9.82;;;2.67;;
51618;SDS011;38518;53.164;5.430;2023-09-30T07:45:03;10.27;;;2.75;;
51618;SDS011;38518;53.164;5.430;2023-09-30T07:47:30;10.75;;;2.92;;
51618;SDS011;38518;53.164;5.430;2023-09-30T07:50:02;9.98;;;2.30;;
51618;SDS011;38518;53.164;5.430;2023-09-30T07:52:31;6.90;;;2.35;;
51618;SDS011;38518;53.164;5.430;2023-09-30T07:54:57;6.57;;;2.20;;
51618;SDS011;38518;53.164;5.430;2023-09-30T07:57:23;7.30;;;2.42;;
51618;SDS011;38518;53.164;5.430;2023-09-30T07:59:49;9.27;;;2.10;;
51618;SDS011;38518;53.164;5.430;2023-09-30T08:02:15;9.05;;;2.33;;
51618;SDS011;38518;53.164;5.430;2023-09-30T08:04:43;7.85;;;2.95;;
51618;SDS011;38518;53.164;5.430;2023-09-30T08:07:08;8.43;;;2.20;;
51618;SDS011;38518;53.164;5.430;2023-09-30T08:09:34;6.18;;;2.20;;
51618;SDS011;38518;53.164;5.430;2023-09-30T08:12:02;7.78;;;2.00;;
51618;SDS011;38518;53.164;5.430;2023-09-30T08:14:28;8.10;;;2.30;;
51618;SDS011;38518;53.164;5.430;2023-09-30T08:16:54;9.10;;;2.50;;
51618;SDS011;38518;53.164;5.430;2023-09-30T08:19:20;8.57;;;2.22;;
51618;SDS011;38518;53.164;5.430;2023-09-30T08:21:46;10.35;;;2.33;;
51618;SDS011;38518;53.164;5.430;2023-09-30T08:24:12;7.82;;;2.63;;
51618;SDS011;38518;53.164;5.430;2023-09-30T08:26:37;7.93;;;2.67;;
51618;SDS011;38518;53.164;5.430;2023-09-30T08:29:03;7.28;;;2.30;;
51618;SDS011;38518;53.164;5.430;2023-09-30T08:31:29;8.10;;;2.40;;
51618;SDS011;38518;53.164;5.430;2023-09-30T08:34:01;8.93;;;2.13;;
51618;SDS011;38518;53.164;5.430;2023-09-30T08:36:29;6.93;;;2.08;;
51618;SDS011;38518;53.164;5.430;2023-09-30T08:38:55;9.20;;;2.60;;
51618;SDS011;38518;53.164;5.430;2023-09-30T08:41:31;6.63;;;2.08;;
51618;SDS011;38518;53.164;5.430;2023-09-30T08:44:02;6.68;;;2.15;;
51618;SDS011;38518;53.164;5.430;2023-09-30T08:46:32;11.90;;;2.88;;
51618;SDS011;38518;53.164;5.430;2023-09-30T08:49:02;7.43;;;2.10;;
51618;SDS011;38518;53.164;5.430;2023-09-30T08:51:30;8.20;;;2.28;;
51618;SDS011;38518;53.164;5.430;2023-09-30T08:53:56;7.88;;;2.15;;
51618;SDS011;38518;53.164;5.430;2023-09-30T08:56:24;6.45;;;1.92;;
51618;SDS011;38518;53.164;5.430;2023-09-30T08:58:58;7.78;;;2.00;;
51618;SDS011;38518;53.164;5.430;2023-09-30T09:01:28;6.20;;;2.25;;
51618;SDS011;38518;53.164;5.430;2023-09-30T09:03:55;8.38;;;2.10;;
51618;SDS011;38518;53.164;5.430;2023-09-30T09:06:22;7.07;;;2.30;;
51618;SDS011;38518;53.164;5.430;2023-09-30T09:08:49;5.38;;;1.73;;
51618;SDS011;38518;53.164;5.430;2023-09-30T09:11:16;6.93;;;2.10;;
51618;SDS011;38518;53.164;5.430;2023-09-30T09:13:46;8.13;;;2.10;;
51618;SDS011;38518;53.164;5.430;2023-09-30T09:16:20;6.82;;;2.33;;
51618;SDS011;38518;53.164;5.430;2023-09-30T09:18:47;8.55;;;2.53;;
51618;SDS011;38518;53.164;5.430;2023-09-30T09:21:15;9.00;;;2.47;;
51618;SDS011;38518;53.164;5.430;2023-09-30T09:23:47;6.72;;;2.15;;
51618;SDS011;38518;53.164;5.430;2023-09-30T09:26:27;6.28;;;1.98;;
51618;SDS011;38518;53.164;5.430;2023-09-30T09:28:58;6.68;;;2.63;;
51618;SDS011;38518;53.164;5.430;2023-09-30T09:31:32;7.05;;;2.15;;
51618;SDS011;38518;53.164;5.430;2023-09-30T09:34:12;7.80;;;2.20;;
51618;SDS011;38518;53.164;5.430;2023-09-30T09:36:40;7.30;;;2.00;;
51618;SDS011;38518;53.164;5.430;2023-09-30T09:39:07;6.32;;;2.08;;
51618;SDS011;38518;53.164;5.430;2023-09-30T09:41:36;4.78;;;2.00;;
51618;SDS011;38518;53.164;5.430;2023-09-30T09:44:16;5.68;;;1.85;;
51618;SDS011;38518;53.164;5.430;2023-09-30T09:46:44;5.38;;;1.73;;
51618;SDS011;38518;53.164;5.430;2023-09-30T09:49:12;7.28;;;1.98;;
51618;SDS011;38518;53.164;5.430;2023-09-30T09:51:40;6.40;;;2.08;;
51618;SDS011;38518;53.164;5.430;2023-09-30T09:54:11;5.90;;;2.40;;
51618;SDS011;38518;53.164;5.430;2023-09-30T09:56:38;6.68;;;2.10;;
51618;SDS011;38518;53.164;5.430;2023-09-30T09:59:04;7.32;;;1.90;;
51618;SDS011;38518;53.164;5.430;2023-09-30T10:01:32;5.32;;;1.92;;
51618;SDS011;38518;53.164;5.430;2023-09-30T10:04:00;5.90;;;1.95;;
51618;SDS011;38518;53.164;5.430;2023-09-30T10:06:27;6.78;;;1.88;;
51618;SDS011;38518;53.164;5.430;2023-09-30T10:08:53;4.18;;;1.70;;
51618;SDS011;38518;53.164;5.430;2023-09-30T10:11:22;6.43;;;1.92;;
51618;SDS011;38518;53.164;5.430;2023-09-30T10:13:52;5.32;;;1.77;;
51618;SDS011;38518;53.164;5.430;2023-09-30T10:21:36;7.47;;;2.22;;
51618;SDS011;38518;53.164;5.430;2023-09-30T10:29:57;6.43;;;1.90;;
51618;SDS011;38518;53.164;5.430;2023-09-30T10:35:22;7.80;;;2.40;;
51618;SDS011;38518;53.164;5.430;2023-09-30T10:40:53;5.30;;;1.90;;
51618;SDS011;38518;53.164;5.430;2023-09-30T10:43:38;5.45;;;2.00;;
51618;SDS011;38518;53.164;5.430;2023-09-30T10:46:50;5.70;;;2.15;;
51618;SDS011;38518;53.164;5.430;2023-09-30T10:48:51;6.78;;;2.25;;
51618;SDS011;38518;53.164;5.430;2023-09-30T10:51:17;4.95;;;2.15;;
51618;SDS011;38518;53.164;5.430;2023-09-30T10:53:47;7.07;;;2.20;;
51618;SDS011;38518;53.164;5.430;2023-09-30T10:56:17;5.57;;;2.13;;
51618;SDS011;38518;53.164;5.430;2023-09-30T10:58:48;6.38;;;1.80;;
51618;SDS011;38518;53.164;5.430;2023-09-30T11:01:19;5.57;;;2.10;;
51618;SDS011;38518;53.164;5.430;2023-09-30T11:03:46;6.45;;;2.28;;
51618;SDS011;38518;53.164;5.430;2023-09-30T11:06:13;5.93;;;1.92;;
51618;SDS011;38518;53.164;5.430;2023-09-30T11:08:55;6.57;;;2.10;;
51618;SDS011;38518;53.164;5.430;2023-09-30T11:11:43;3.95;;;1.70;;
51618;SDS011;38518;53.164;5.430;2023-09-30T11:14:26;6.90;;;2.10;;
51618;SDS011;38518;53.164;5.430;2023-09-30T11:16:54;4.85;;;2.08;;
51618;SDS011;38518;53.164;5.430;2023-09-30T11:19:21;8.07;;;2.10;;
51618;SDS011;38518;53.164;5.430;2023-09-30T11:21:52;5.78;;;2.22;;
51618;SDS011;38518;53.164;5.430;2023-09-30T11:24:20;6.07;;;1.90;;
51618;SDS011;38518;53.164;5.430;2023-09-30T11:26:46;4.00;;;1.83;;
51618;SDS011;38518;53.164;5.430;2023-09-30T11:29:13;5.43;;;1.80;;
51618;SDS011;38518;53.164;5.430;2023-09-30T11:31:41;6.30;;;1.83;;
51618;SDS011;38518;53.164;5.430;2023-09-30T11:34:09;6.45;;;2.17;;
51618;SDS011;38518;53.164;5.430;2023-09-30T11:36:40;5.53;;;1.75;;
51618;SDS011;38518;53.164;5.430;2023-09-30T11:39:20;8.25;;;2.08;;
51618;SDS011;38518;53.164;5.430;2023-09-30T11:41:50;5.75;;;1.90;;
51618;SDS011;38518;53.164;5.430;2023-09-30T11:44:17;6.03;;;2.10;;
51618;SDS011;38518;53.164;5.430;2023-09-30T11:49:36;4.82;;;2.20;;
51618;SDS011;38518;53.164;5.430;2023-09-30T11:52:07;7.57;;;2.38;;
51618;SDS011;38518;53.164;5.430;2023-09-30T11:54:36;5.32;;;2.13;;
51618;SDS011;38518;53.164;5.430;2023-09-30T11:57:06;4.25;;;2.10;;
51618;SDS011;38518;53.164;5.430;2023-09-30T11:59:35;6.70;;;2.05;;
51618;SDS011;38518;53.164;5.430;2023-09-30T12:02:01;4.88;;;2.20;;
51618;SDS011;38518;53.164;5.430;2023-09-30T12:04:28;5.68;;;1.90;;
51618;SDS011;38518;53.164;5.430;2023-09-30T12:06:55;5.70;;;1.90;;
51618;SDS011;38518;53.164;5.430;2023-09-30T12:09:22;7.53;;;2.08;;
51618;SDS011;38518;53.164;5.430;2023-09-30T12:11:50;7.65;;;1.98;;
51618;SDS011;38518;53.164;5.430;2023-09-30T12:14:17;8.02;;;2.30;;
51618;SDS011;38518;53.164;5.430;2023-09-30T12:16:43;6.55;;;2.22;;
51618;SDS011;38518;53.164;5.430;2023-09-30T12:19:12;7.05;;;2.20;;
51618;SDS011;38518;53.164;5.430;2023-09-30T12:21:39;6.13;;;1.90;;
51618;SDS011;38518;53.164;5.430;2023-09-30T12:24:05;6.00;;;2.05;;
51618;SDS011;38518;53.164;5.430;2023-09-30T12:26:33;5.55;;;2.38;;
51618;SDS011;38518;53.164;5.430;2023-09-30T12:28:59;6.97;;;1.88;;
51618;SDS011;38518;53.164;5.430;2023-09-30T12:31:25;7.55;;;2.47;;
51618;SDS011;38518;53.164;5.430;2023-09-30T12:33:51;6.15;;;2.00;;
51618;SDS011;38518;53.164;5.430;2023-09-30T12:36:20;5.95;;;2.40;;
51618;SDS011;38518;53.164;5.430;2023-09-30T12:38:47;6.13;;;2.10;;
51618;SDS011;38518;53.164;5.430;2023-09-30T12:41:13;5.80;;;1.90;;
51618;SDS011;38518;53.164;5.430;2023-09-30T12:43:44;6.05;;;2.00;;
51618;SDS011;38518;53.164;5.430;2023-09-30T12:46:10;4.78;;;1.70;;
51618;SDS011;38518;53.164;5.430;2023-09-30T12:48:39;6.32;;;2.20;;
51618;SDS011;38518;53.164;5.430;2023-09-30T12:51:05;7.28;;;2.00;;
51618;SDS011;38518;53.164;5.430;2023-09-30T12:53:32;4.45;;;1.85;;
51618;SDS011;38518;53.164;5.430;2023-09-30T12:55:58;4.45;;;1.60;;
51618;SDS011;38518;53.164;5.430;2023-09-30T12:58:25;8.73;;;2.28;;
51618;SDS011;38518;53.164;5.430;2023-09-30T13:00:53;5.68;;;1.88;;
51618;SDS011;38518;53.164;5.430;2023-09-30T13:03:20;5.15;;;2.17;;
51618;SDS011;38518;53.164;5.430;2023-09-30T13:05:46;5.65;;;2.00;;
51618;SDS011;38518;53.164;5.430;2023-09-30T13:08:12;4.32;;;1.90;;
51618;SDS011;38518;53.164;5.430;2023-09-30T13:10:37;5.10;;;2.00;;
51618;SDS011;38518;53.164;5.430;2023-09-30T13:13:03;3.80;;;1.63;;
51618;SDS011;38518;53.164;5.430;2023-09-30T13:15:30;6.22;;;2.13;;
51618;SDS011;38518;53.164;5.430;2023-09-30T13:17:56;5.60;;;2.13;;
51618;SDS011;38518;53.164;5.430;2023-09-30T13:20:21;5.65;;;1.98;;
51618;SDS011;38518;53.164;5.430;2023-09-30T13:22:47;5.53;;;2.05;;
51618;SDS011;38518;53.164;5.430;2023-09-30T13:25:13;5.95;;;1.95;;
51618;SDS011;38518;53.164;5.430;2023-09-30T13:27:41;5.47;;;2.13;;
51618;SDS011;38518;53.164;5.430;2023-09-30T13:30:07;5.40;;;1.77;;
51618;SDS011;38518;53.164;5.430;2023-09-30T13:32:34;4.97;;;1.95;;
51618;SDS011;38518;53.164;5.430;2023-09-30T13:35:03;7.03;;;2.17;;
51618;SDS011;38518;53.164;5.430;2023-09-30T13:37:32;5.55;;;1.88;;
51618;SDS011;38518;53.164;5.430;2023-09-30T13:39:59;5.53;;;2.05;;
51618;SDS011;38518;53.164;5.430;2023-09-30T13:42:25;5.65;;;1.90;;
51618;SDS011;38518;53.164;5.430;2023-09-30T13:44:52;6.85;;;2.40;;
51618;SDS011;38518;53.164;5.430;2023-09-30T13:47:18;6.65;;;2.22;;
51618;SDS011;38518;53.164;5.430;2023-09-30T13:49:43;5.68;;;1.98;;
51618;SDS011;38518;53.164;5.430;2023-09-30T13:52:09;6.45;;;2.20;;
51618;SDS011;38518;53.164;5.430;2023-09-30T13:54:35;6.03;;;1.98;;
51618;SDS011;38518;53.164;5.430;2023-09-30T13:57:01;6.05;;;1.90;;
51618;SDS011;38518;53.164;5.430;2023-09-30T13:59:27;5.80;;;2.05;;
51618;SDS011;38518;53.164;5.430;2023-09-30T14:01:53;6.20;;;2.20;;
51618;SDS011;38518;53.164;5.430;2023-09-30T14:04:18;7.03;;;2.05;;
51618;SDS011;38518;53.164;5.430;2023-09-30T14:06:45;5.55;;;1.80;;
51618;SDS011;38518;53.164;5.430;2023-09-30T14:09:12;5.18;;;1.90;;
51618;SDS011;38518;53.164;5.430;2023-09-30T14:11:40;5.55;;;1.95;;
51618;SDS011;38518;53.164;5.430;2023-09-30T14:14:07;5.72;;;2.08;;
51618;SDS011;38518;53.164;5.430;2023-09-30T14:16:35;5.97;;;2.00;;
51618;SDS011;38518;53.164;5.430;2023-09-30T14:19:02;5.32;;;1.83;;
51618;SDS011;38518;53.164;5.430;2023-09-30T14:21:28;3.95;;;1.60;;
51618;SDS011;38518;53.164;5.430;2023-09-30T14:23:54;5.07;;;1.88;;
51618;SDS011;38518;53.164;5.430;2023-09-30T14:26:20;5.30;;;2.08;;
51618;SDS011;38518;53.164;5.430;2023-09-30T14:28:46;6.30;;;1.90;;
51618;SDS011;38518;53.164;5.430;2023-09-30T14:31:11;6.05;;;2.08;;
51618;SDS011;38518;53.164;5.430;2023-09-30T14:33:39;5.53;;;2.17;;
51618;SDS011;38518;53.164;5.430;2023-09-30T14:36:05;7.72;;;2.10;;
51618;SDS011;38518;53.164;5.430;2023-09-30T14:38:31;6.57;;;2.20;;
51618;SDS011;38518;53.164;5.430;2023-09-30T14:40:57;6.10;;;1.90;;
51618;SDS011;38518;53.164;5.430;2023-09-30T14:43:22;5.93;;;1.83;;
51618;SDS011;38518;53.164;5.430;2023-09-30T14:45:48;5.68;;;1.83;;
51618;SDS011;38518;53.164;5.430;2023-09-30T14:48:14;4.20;;;1.63;;
51618;SDS011;38518;53.164;5.430;2023-09-30T14:50:49;6.07;;;2.00;;
51618;SDS011;38518;53.164;5.430;2023-09-30T14:53:16;4.80;;;2.05;;
51618;SDS011;38518;53.164;5.430;2023-09-30T14:55:42;6.15;;;2.67;;
51618;SDS011;38518;53.164;5.430;2023-09-30T14:58:08;4.55;;;2.03;;
51618;SDS011;38518;53.164;5.430;2023-09-30T15:00:34;5.20;;;2.10;;
51618;SDS011;38518;53.164;5.430;2023-09-30T15:03:01;6.10;;;2.08;;
51618;SDS011;38518;53.164;5.430;2023-09-30T15:05:26;7.82;;;2.40;;
51618;SDS011;38518;53.164;5.430;2023-09-30T15:07:52;5.47;;;1.95;;